createdAt,value
2022-07-29T00:02:10.133Z,23.73
2022-07-29T00:04:37.459Z,23.78
2022-07-29T00:07:05.266Z,23.97
2022-07-29T00:09:52.784Z,23.91
2022-07-29T00:12:33.062Z,24.15
2022-07-29T00:14:59.906Z,24.17
2022-07-29T00:17:46.542Z,24.30
2022-07-29T00:20:27.264Z,24.29
2022-07-29T00:22:54.321Z,24.25
2022-07-29T00:25:21.392Z,24.22
2022-07-29T00:27:48.472Z,24.17
2022-07-29T00:30:35.560Z,23.94
2022-07-29T00:33:36.567Z,23.86
2022-07-29T00:36:37.549Z,23.90
2022-07-29T00:39:18.004Z,23.90
2022-07-29T00:41:44.758Z,23.82
2022-07-29T00:44:11.716Z,23.70
2022-07-29T00:46:38.568Z,23.57
2022-07-29T00:49:05.474Z,23.64
2022-07-29T00:51:32.815Z,23.86
2022-07-29T00:54:01.106Z,23.66
2022-07-29T00:56:28.022Z,23.56
2022-07-29T00:58:56.426Z,23.83
2022-07-29T01:01:43.841Z,23.82
2022-07-29T01:04:24.239Z,23.73
2022-07-29T01:06:51.978Z,23.68
2022-07-29T01:09:45.879Z,23.64
2022-07-29T01:12:27.895Z,23.76
2022-07-29T01:14:55.211Z,23.71
2022-07-29T01:17:55.577Z,23.66
2022-07-29T01:20:59.592Z,23.42
2022-07-29T01:23:29.685Z,23.41
2022-07-29T01:26:20.663Z,23.52
2022-07-29T01:28:50.841Z,23.78
2022-07-29T01:31:59.384Z,23.87
2022-07-29T01:35:15.737Z,23.75
2022-07-29T01:38:07.104Z,23.63
2022-07-29T01:40:33.822Z,23.47
2022-07-29T01:43:04.226Z,23.21
2022-07-29T01:45:52.462Z,23.45
2022-07-29T01:48:21.326Z,23.88
2022-07-29T01:51:05.617Z,23.80
2022-07-29T01:53:39.858Z,23.70
2022-07-29T01:56:07.975Z,23.75
2022-07-29T01:58:36.141Z,23.83
2022-07-29T02:01:23.679Z,23.81
2022-07-29T02:04:04.908Z,23.44
2022-07-29T02:06:33.486Z,23.78
2022-07-29T02:09:21.644Z,23.97
2022-07-29T02:12:03.407Z,23.90
2022-07-29T02:14:34.333Z,23.56
2022-07-29T02:17:21.684Z,22.99
2022-07-29T02:20:04.561Z,22.81
2022-07-29T02:22:32.280Z,22.87
2022-07-29T02:25:00.029Z,22.73
2022-07-29T02:27:29.483Z,22.77
2022-07-29T02:29:58.992Z,22.73
2022-07-29T02:32:27.163Z,22.75
2022-07-29T02:35:15.831Z,22.70
2022-07-29T02:38:35.669Z,22.63
2022-07-29T02:41:18.313Z,22.43
2022-07-29T02:43:46.133Z,22.49
2022-07-29T02:46:28.484Z,22.34
2022-07-29T02:49:00.545Z,22.37
2022-07-29T02:51:43.754Z,22.69
2022-07-29T02:54:12.910Z,22.90
2022-07-29T02:56:40.498Z,22.77
2022-07-29T02:59:11.392Z,22.91
2022-07-29T03:01:59.724Z,22.92
2022-07-29T03:05:01.725Z,23.00
2022-07-29T03:08:05.668Z,22.96
2022-07-29T03:10:46.655Z,22.93
2022-07-29T03:13:14.133Z,22.84
2022-07-29T03:15:43.238Z,22.85
2022-07-29T03:18:10.384Z,22.79
2022-07-29T03:20:38.422Z,22.69
2022-07-29T03:23:05.502Z,22.66
2022-07-29T03:25:32.380Z,22.81
2022-07-29T03:27:59.969Z,22.62
2022-07-29T03:30:26.954Z,22.62
2022-07-29T03:32:54.262Z,22.69
2022-07-29T03:35:23.711Z,22.63
2022-07-29T03:37:50.557Z,22.70
2022-07-29T03:40:19.702Z,22.75
2022-07-29T03:42:46.913Z,22.64
2022-07-29T03:45:16.898Z,22.75
2022-07-29T03:47:51.126Z,22.57
2022-07-29T03:50:39.674Z,22.57
2022-07-29T03:53:40.653Z,22.52
2022-07-29T03:56:22.695Z,22.49
2022-07-29T03:58:53.138Z,22.59
2022-07-29T04:01:39.663Z,22.41
2022-07-29T04:04:40.688Z,22.44
2022-07-29T04:07:21.393Z,22.26
2022-07-29T04:10:08.689Z,22.40
2022-07-29T04:12:49.244Z,22.35
2022-07-29T04:15:19.814Z,22.48
2022-07-29T04:17:46.548Z,22.37
2022-07-29T04:20:16.123Z,22.32
2022-07-29T04:22:43.117Z,22.41
2022-07-29T04:25:09.885Z,22.54
2022-07-29T04:27:36.971Z,22.73
2022-07-29T04:30:04.043Z,22.76
2022-07-29T04:32:50.701Z,22.99
2022-07-29T04:35:38.041Z,23.15
2022-07-29T04:38:25.702Z,23.37
2022-07-29T04:41:07.818Z,23.27
2022-07-29T04:43:36.926Z,23.70
2022-07-29T04:46:04.656Z,23.09
2022-07-29T04:48:51.761Z,22.46
2022-07-29T04:51:32.164Z,22.30
2022-07-29T04:53:58.945Z,22.58
2022-07-29T04:56:25.772Z,22.69
2022-07-29T04:58:52.975Z,22.85
2022-07-29T05:01:20.123Z,23.00
2022-07-29T05:03:46.894Z,23.32
2022-07-29T05:06:13.717Z,23.36
2022-07-29T05:09:00.731Z,23.15
2022-07-29T05:12:01.721Z,23.46
2022-07-29T05:14:42.097Z,23.94
2022-07-29T05:17:09.073Z,24.78
2022-07-29T05:19:39.586Z,25.13
2022-07-29T05:22:06.674Z,26.09
2022-07-29T05:24:33.445Z,26.14
2022-07-29T05:27:00.296Z,27.17
2022-07-29T05:29:43.006Z,26.52
2022-07-29T05:32:31.738Z,25.68
2022-07-29T05:35:13.218Z,25.41
2022-07-29T05:37:59.746Z,25.22
2022-07-29T05:40:40.188Z,26.14
2022-07-29T05:43:07.066Z,26.63
2022-07-29T05:45:33.968Z,28.27
2022-07-29T05:48:35.753Z,29.87
2022-07-29T05:51:16.557Z,29.72
2022-07-29T05:53:43.357Z,29.03
2022-07-29T05:56:10.310Z,29.06
2022-07-29T05:58:37.277Z,31.12
2022-07-29T06:01:04.337Z,30.78
2022-07-29T06:03:31.450Z,30.74
2022-07-29T06:05:58.618Z,31.76
2022-07-29T06:08:45.794Z,31.72
2022-07-29T06:11:26.148Z,31.91
2022-07-29T06:13:52.973Z,31.74
2022-07-29T06:16:29.681Z,32.76
2022-07-29T06:18:57.299Z,33.45
2022-07-29T06:21:24.059Z,31.26
2022-07-29T06:24:10.786Z,28.89
2022-07-29T06:27:11.818Z,29.47
2022-07-29T06:30:08.089Z,30.17
2022-07-29T06:32:54.773Z,27.01
2022-07-29T06:35:41.217Z,27.31
2022-07-29T06:38:25.074Z,28.45
2022-07-29T06:41:02.575Z,26.67
2022-07-29T06:43:35.089Z,26.42
2022-07-29T06:46:03.707Z,26.22
2022-07-29T06:48:50.877Z,27.98
2022-07-29T06:51:31.322Z,25.97
2022-07-29T06:54:02.712Z,26.62
2022-07-29T06:56:38.940Z,27.30
2022-07-29T06:59:35.037Z,27.59
2022-07-29T07:02:16.372Z,28.73
2022-07-29T07:04:43.270Z,29.46
2022-07-29T07:07:10.015Z,28.50
2022-07-29T07:09:56.800Z,28.68
2022-07-29T07:12:38.990Z,28.02
2022-07-29T07:15:10.009Z,28.87
2022-07-29T07:17:43.271Z,28.86
2022-07-29T07:20:12.316Z,28.47
2022-07-29T07:23:05.814Z,28.97
2022-07-29T07:26:38.753Z,28.92
2022-07-29T07:29:23.322Z,31.03
2022-07-29T07:32:28.041Z,28.89
2022-07-29T07:35:35.078Z,29.93
2022-07-29T07:38:16.037Z,28.36
2022-07-29T07:40:43.704Z,30.13
2022-07-29T07:43:10.914Z,31.60
2022-07-29T07:45:38.578Z,28.33
2022-07-29T07:48:26.579Z,29.16
2022-07-29T07:51:28.007Z,28.49
2022-07-29T07:54:24.669Z,28.64
2022-07-29T07:56:53.175Z,28.75
2022-07-29T07:59:20.753Z,29.07
2022-07-29T08:01:55.560Z,27.76
2022-07-29T08:04:43.861Z,28.17
2022-07-29T08:07:24.383Z,30.18
2022-07-29T08:10:11.906Z,31.27
2022-07-29T08:12:52.336Z,27.85
2022-07-29T08:15:22.383Z,28.49
2022-07-29T08:17:49.884Z,29.52
2022-07-29T08:20:17.105Z,29.34
2022-07-29T08:23:03.863Z,30.49
2022-07-29T08:25:44.272Z,30.18
2022-07-29T08:28:11.609Z,29.69
2022-07-29T08:30:38.584Z,31.20
2022-07-29T08:33:25.842Z,32.12
2022-07-29T08:36:07.251Z,29.13
2022-07-29T08:38:34.673Z,30.64
2022-07-29T08:41:04.087Z,29.34
2022-07-29T08:43:43.277Z,30.52
2022-07-29T08:46:31.931Z,31.21
2022-07-29T08:49:33.185Z,31.35
2022-07-29T08:52:13.768Z,31.91
2022-07-29T08:54:46.240Z,32.39
2022-07-29T08:57:18.177Z,32.72
2022-07-29T08:59:48.513Z,32.46
2022-07-29T09:02:26.245Z,29.75
2022-07-29T09:04:53.799Z,28.91
2022-07-29T09:07:21.285Z,30.12
2022-07-29T09:10:08.961Z,31.25
2022-07-29T09:12:50.258Z,30.85
2022-07-29T09:15:20.288Z,31.67
2022-07-29T09:17:51.643Z,32.42
2022-07-29T09:20:20.552Z,33.26
2022-07-29T09:22:51.962Z,33.51
2022-07-29T09:25:35.884Z,32.94
2022-07-29T09:28:07.074Z,31.05
2022-07-29T09:30:34.494Z,32.06
2022-07-29T09:33:22.104Z,32.60
2022-07-29T09:36:07.238Z,32.93
2022-07-29T09:38:34.462Z,33.52
2022-07-29T09:41:05.867Z,32.90
2022-07-29T09:43:53.937Z,33.33
2022-07-29T09:46:34.654Z,33.47
2022-07-29T09:49:11.284Z,33.31
2022-07-29T09:51:58.950Z,33.63
2022-07-29T09:55:01.950Z,33.71
2022-07-29T09:57:42.523Z,33.44
2022-07-29T10:00:17.318Z,33.31
2022-07-29T10:03:07.998Z,30.63
2022-07-29T10:06:05.032Z,31.00
2022-07-29T10:08:51.966Z,31.13
2022-07-29T10:11:48.079Z,31.34
2022-07-29T10:14:16.402Z,30.22
2022-07-29T10:16:43.658Z,31.73
2022-07-29T10:19:10.597Z,31.83
2022-07-29T10:21:38.932Z,32.61
2022-07-29T10:24:25.977Z,33.44
2022-07-29T10:27:07.977Z,32.81
2022-07-29T10:29:35.252Z,33.87
2022-07-29T10:32:18.429Z,32.36
2022-07-29T10:34:58.349Z,34.11
2022-07-29T10:37:55.043Z,35.11
2022-07-29T10:41:03.634Z,36.27
2022-07-29T10:43:37.272Z,34.86
2022-07-29T10:46:05.447Z,35.18
2022-07-29T10:49:25.063Z,36.16
2022-07-29T10:52:30.286Z,37.34
2022-07-29T10:55:30.350Z,37.35
2022-07-29T10:58:18.855Z,36.46
2022-07-29T11:00:50.555Z,36.01
2022-07-29T11:04:00.039Z,36.07
2022-07-29T11:07:13.815Z,35.48
2022-07-29T11:10:20.202Z,35.33
2022-07-29T11:13:00.482Z,35.95
2022-07-29T11:15:28.781Z,34.94
2022-07-29T11:17:59.641Z,34.13
2022-07-29T11:20:37.985Z,33.09
2022-07-29T11:23:21.770Z,32.97
2022-07-29T11:26:08.990Z,33.24
2022-07-29T11:28:37.280Z,32.12
2022-07-29T11:31:04.656Z,31.78
2022-07-29T11:33:56.125Z,32.27
2022-07-29T11:37:20.089Z,32.68
2022-07-29T11:40:12.719Z,32.51
2022-07-29T11:42:41.751Z,32.64
2022-07-29T11:45:42.758Z,31.39
2022-07-29T11:48:28.693Z,31.69
2022-07-29T11:51:13.303Z,32.06
2022-07-29T11:53:40.923Z,32.20
2022-07-29T11:56:09.522Z,31.22
2022-07-29T11:58:38.336Z,31.54
2022-07-29T12:01:06.290Z,32.17
2022-07-29T12:03:35.882Z,32.30
2022-07-29T12:06:14.870Z,33.06
2022-07-29T12:09:02.035Z,31.63
2022-07-29T12:12:05.433Z,31.31
2022-07-29T12:14:48.492Z,31.21
2022-07-29T12:17:30.823Z,31.01
2022-07-29T12:19:58.446Z,31.27
2022-07-29T12:22:28.119Z,31.86
2022-07-29T12:24:58.888Z,31.71
2022-07-29T12:27:40.484Z,32.18
2022-07-29T12:30:31.075Z,32.20
2022-07-29T12:33:32.052Z,31.62
2022-07-29T12:36:17.896Z,32.05
2022-07-29T12:38:45.579Z,31.50
2022-07-29T12:41:12.704Z,31.16
2022-07-29T12:43:52.379Z,30.99
2022-07-29T12:46:19.220Z,30.36
2022-07-29T12:49:06.114Z,30.83
2022-07-29T12:52:07.043Z,31.66
2022-07-29T12:54:47.808Z,31.28
2022-07-29T12:57:20.024Z,31.82
2022-07-29T12:59:59.296Z,31.72
2022-07-29T13:02:26.148Z,32.15
2022-07-29T13:05:00.123Z,32.14
2022-07-29T13:07:55.033Z,32.62
2022-07-29T13:10:46.556Z,31.91
2022-07-29T13:13:14.611Z,32.46
2022-07-29T13:15:45.623Z,33.29
2022-07-29T13:18:31.785Z,32.89
2022-07-29T13:20:58.603Z,32.73
2022-07-29T13:23:25.402Z,32.94
2022-07-29T13:26:24.094Z,32.45
2022-07-29T13:29:28.559Z,31.74
2022-07-29T13:32:33.064Z,31.79
2022-07-29T13:35:14.360Z,32.15
2022-07-29T13:37:41.305Z,32.60
2022-07-29T13:40:09.224Z,32.95
2022-07-29T13:42:36.260Z,33.13
2022-07-29T13:45:04.307Z,32.77
2022-07-29T13:47:32.342Z,32.87
2022-07-29T13:50:03.862Z,32.35
2022-07-29T13:52:33.011Z,32.84
2022-07-29T13:54:59.973Z,32.64
2022-07-29T13:57:26.836Z,32.79
2022-07-29T13:59:54.600Z,32.55
2022-07-29T14:02:21.536Z,32.57
2022-07-29T14:04:53.616Z,32.83
2022-07-29T14:07:20.643Z,32.87
2022-07-29T14:10:08.188Z,32.86
2022-07-29T14:12:48.599Z,32.88
2022-07-29T14:15:15.485Z,32.86
2022-07-29T14:17:42.327Z,32.75
2022-07-29T14:20:09.368Z,32.56
2022-07-29T14:22:56.130Z,32.42
2022-07-29T14:25:37.034Z,32.06
2022-07-29T14:28:07.040Z,31.66
2022-07-29T14:30:34.087Z,31.31
2022-07-29T14:33:21.085Z,31.08
2022-07-29T14:36:22.145Z,30.84
2022-07-29T14:39:02.691Z,30.37
2022-07-29T14:41:29.628Z,30.03
2022-07-29T14:43:56.486Z,29.46
2022-07-29T14:46:23.502Z,29.15
2022-07-29T14:49:12.303Z,29.02
2022-07-29T14:52:34.764Z,28.57
2022-07-29T14:55:28.499Z,27.92
2022-07-29T14:58:04.598Z,26.87
2022-07-29T15:00:35.113Z,26.66
2022-07-29T15:03:03.061Z,26.60
2022-07-29T15:05:31.069Z,26.77
2022-07-29T15:08:18.392Z,26.62
2022-07-29T15:11:00.353Z,26.89
2022-07-29T15:13:27.496Z,26.92
2022-07-29T15:15:58.335Z,26.66
2022-07-29T15:18:47.190Z,26.70
2022-07-29T15:21:49.108Z,26.79
2022-07-29T15:24:29.906Z,26.89
2022-07-29T15:26:56.894Z,26.91
2022-07-29T15:29:24.055Z,26.92
2022-07-29T15:32:11.262Z,27.04
2022-07-29T15:34:56.501Z,27.10
2022-07-29T15:37:23.287Z,27.17
2022-07-29T15:39:50.459Z,27.26
2022-07-29T15:42:17.891Z,27.34
2022-07-29T15:44:44.811Z,27.23
2022-07-29T15:47:11.556Z,27.21
2022-07-29T15:49:47.164Z,27.22
2022-07-29T15:52:36.205Z,27.41
2022-07-29T15:55:37.187Z,27.39
2022-07-29T15:58:17.697Z,27.32
2022-07-29T16:00:44.464Z,27.23
2022-07-29T16:03:31.213Z,27.15
2022-07-29T16:06:11.867Z,27.33
2022-07-29T16:08:59.169Z,27.33
2022-07-29T16:12:00.186Z,27.17
2022-07-29T16:15:03.879Z,27.04
2022-07-29T16:18:07.197Z,27.18
2022-07-29T16:20:47.708Z,27.25
2022-07-29T16:23:16.043Z,27.35
2022-07-29T16:25:59.235Z,27.48
2022-07-29T16:28:27.656Z,27.08
2022-07-29T16:30:54.522Z,27.29
2022-07-29T16:33:54.297Z,27.15
2022-07-29T16:36:35.652Z,27.15
2022-07-29T16:39:02.482Z,26.99
2022-07-29T16:41:29.754Z,27.09
2022-07-29T16:43:56.533Z,26.97
2022-07-29T16:46:24.301Z,26.85
2022-07-29T16:48:52.764Z,26.40
2022-07-29T16:51:19.848Z,26.67
2022-07-29T16:53:49.016Z,26.12
2022-07-29T16:56:17.527Z,25.78
2022-07-29T16:58:44.655Z,25.42
2022-07-29T17:01:12.444Z,25.35
2022-07-29T17:04:14.286Z,25.51
2022-07-29T17:07:15.301Z,25.36
2022-07-29T17:10:16.283Z,25.00
2022-07-29T17:12:56.845Z,24.60
2022-07-29T17:15:24.798Z,24.27
2022-07-29T17:18:12.932Z,24.13
2022-07-29T17:20:53.771Z,24.11
2022-07-29T17:23:20.623Z,23.77
2022-07-29T17:25:47.436Z,23.50
2022-07-29T17:28:14.242Z,23.39
2022-07-29T17:30:41.058Z,23.36
2022-07-29T17:33:28.293Z,23.24
2022-07-29T17:36:23.864Z,23.17
2022-07-29T17:38:52.818Z,23.12
2022-07-29T17:41:19.907Z,23.34
2022-07-29T17:43:46.749Z,23.25
2022-07-29T17:46:13.726Z,23.13
2022-07-29T17:48:41.491Z,23.03
2022-07-29T17:51:08.445Z,23.01
2022-07-29T17:53:35.683Z,22.82
2022-07-29T17:56:03.999Z,22.91
2022-07-29T17:58:32.293Z,22.69
2022-07-29T18:00:59.375Z,22.64
2022-07-29T18:03:26.553Z,22.68
2022-07-29T18:06:13.260Z,22.66
2022-07-29T18:09:14.296Z,22.58
2022-07-29T18:12:16.272Z,22.53
2022-07-29T18:14:56.648Z,22.50
2022-07-29T18:17:48.374Z,22.42
2022-07-29T18:20:10.962Z,22.29
2022-07-29T18:22:37.753Z,22.20
2022-07-29T18:25:04.782Z,22.04
2022-07-29T18:27:31.654Z,22.07
2022-07-29T18:29:58.391Z,21.91
2022-07-29T18:33:19.307Z,21.88
2022-07-29T18:36:04.203Z,21.83
2022-07-29T18:38:37.795Z,21.63
2022-07-29T18:41:04.692Z,21.70
2022-07-29T18:43:31.531Z,21.65
2022-07-29T18:45:58.386Z,21.64
2022-07-29T18:48:25.587Z,21.70
2022-07-29T18:50:52.445Z,21.73
2022-07-29T18:53:19.268Z,21.78
2022-07-29T18:55:46.304Z,21.67
2022-07-29T18:58:13.046Z,21.52
2022-07-29T19:01:00.355Z,21.58
2022-07-29T19:03:40.849Z,21.47
2022-07-29T19:06:28.295Z,21.51
2022-07-29T19:09:29.303Z,21.48
2022-07-29T19:12:09.756Z,21.47
2022-07-29T19:14:36.758Z,21.60
2022-07-29T19:17:03.762Z,21.81
2022-07-29T19:19:30.518Z,21.96
2022-07-29T19:21:57.430Z,22.04
2022-07-29T19:24:24.253Z,22.12
2022-07-29T19:26:51.123Z,22.19
2022-07-29T19:29:18.121Z,22.23
2022-07-29T19:31:44.999Z,22.26
2022-07-29T19:34:25.370Z,22.33
2022-07-29T19:37:05.876Z,22.23
2022-07-29T19:39:35.584Z,22.14
2022-07-29T19:42:03.558Z,22.06
2022-07-29T19:44:50.308Z,22.17
2022-07-29T19:47:51.370Z,22.16
2022-07-29T19:50:32.166Z,22.34
2022-07-29T19:52:59.686Z,22.36
2022-07-29T19:55:29.753Z,22.32
2022-07-29T19:58:16.373Z,22.45
2022-07-29T20:00:56.863Z,22.34
2022-07-29T20:03:23.653Z,22.40
2022-07-29T20:06:10.358Z,22.42
2022-07-29T20:09:06.090Z,22.47
2022-07-29T20:12:06.331Z,22.50
2022-07-29T20:14:46.938Z,22.48
2022-07-29T20:17:13.680Z,22.50
2022-07-29T20:19:40.713Z,22.62
2022-07-29T20:22:07.571Z,22.65
2022-07-29T20:24:34.413Z,22.69
2022-07-29T20:27:01.557Z,22.72
2022-07-29T20:29:49.471Z,22.76
2022-07-29T20:32:50.363Z,22.77
2022-07-29T20:35:31.614Z,22.73
2022-07-29T20:37:58.465Z,22.77
2022-07-29T20:40:25.787Z,22.85
2022-07-29T20:42:53.250Z,22.90
2022-07-29T20:45:41.379Z,22.76
2022-07-29T20:48:21.981Z,22.68
2022-07-29T20:50:48.931Z,22.57
2022-07-29T20:53:36.482Z,22.67
2022-07-29T20:56:16.874Z,22.69
2022-07-29T20:58:43.697Z,22.74
2022-07-29T21:01:10.702Z,22.13
2022-07-29T21:03:37.613Z,22.29
2022-07-29T21:06:04.558Z,22.18
2022-07-29T21:08:51.410Z,22.35
2022-07-29T21:11:43.633Z,22.42
2022-07-29T21:14:27.721Z,22.28
2022-07-29T21:16:54.773Z,22.24
2022-07-29T21:19:21.524Z,22.38
2022-07-29T21:21:48.436Z,22.56
2022-07-29T21:24:15.188Z,22.37
2022-07-29T21:26:47.258Z,22.37
2022-07-29T21:29:34.396Z,22.51
2022-07-29T21:32:35.448Z,22.43
2022-07-29T21:35:30.314Z,22.58
2022-07-29T21:38:02.765Z,22.59
2022-07-29T21:40:30.458Z,22.32
2022-07-29T21:42:57.294Z,22.70
2022-07-29T21:45:24.211Z,22.60
2022-07-29T21:48:11.397Z,22.54
2022-07-29T21:51:12.465Z,22.42
2022-07-29T21:53:53.243Z,22.30
2022-07-29T21:56:20.361Z,22.23
2022-07-29T21:58:49.502Z,22.06
2022-07-29T22:01:16.363Z,22.10
2022-07-29T22:03:45.413Z,22.08
2022-07-29T22:06:32.405Z,22.08
2022-07-29T22:09:33.401Z,21.97
2022-07-29T22:12:13.845Z,21.98
2022-07-29T22:14:40.810Z,21.99
2022-07-29T22:17:27.440Z,22.01
2022-07-29T22:20:08.192Z,22.10
2022-07-29T22:22:35.245Z,22.25
2022-07-29T22:25:02.808Z,22.04
2022-07-29T22:27:29.659Z,22.00
2022-07-29T22:30:19.421Z,22.07
2022-07-29T22:33:20.429Z,22.08
2022-07-29T22:36:00.913Z,22.06
2022-07-29T22:38:27.653Z,22.11
2022-07-29T22:40:54.558Z,21.98
2022-07-29T22:43:47.472Z,21.99
2022-07-29T22:46:38.759Z,21.86
2022-07-29T22:49:05.818Z,22.15
2022-07-29T22:51:33.006Z,22.45
2022-07-29T22:53:59.818Z,22.46
2022-07-29T22:56:26.587Z,22.30
2022-07-29T22:58:55.439Z,22.21
2022-07-29T23:01:35.792Z,22.04
2022-07-29T23:04:05.482Z,21.92
2022-07-29T23:06:32.418Z,21.68
2022-07-29T23:09:19.480Z,21.59
2022-07-29T23:12:00.049Z,21.61
2022-07-29T23:14:26.923Z,21.77
2022-07-29T23:16:53.895Z,21.69
2022-07-29T23:19:20.765Z,21.61
2022-07-29T23:21:47.601Z,21.57
2022-07-29T23:24:14.401Z,21.56
2022-07-29T23:26:41.268Z,21.50
2022-07-29T23:29:28.476Z,21.51
2022-07-29T23:32:09.071Z,21.59
2022-07-29T23:34:35.915Z,21.68
2022-07-29T23:37:03.141Z,21.79
2022-07-29T23:39:50.446Z,21.69
2022-07-29T23:42:51.497Z,21.42
2022-07-29T23:45:44.708Z,21.25
2022-07-29T23:48:15.512Z,21.20
2022-07-29T23:50:42.505Z,21.12
2022-07-29T23:53:09.308Z,21.05
2022-07-29T23:55:39.252Z,20.93
2022-07-29T23:58:06.392Z,20.97
